createdAt,value
2023-05-06T00:01:46.737Z,11.42
2023-05-06T00:06:49.819Z,11.09
2023-05-06T00:11:52.589Z,11.04
2023-05-06T00:16:56.707Z,10.71
2023-05-06T00:22:00.015Z,10.56
2023-05-06T00:27:02.786Z,10.31
2023-05-06T00:32:07.188Z,10.30
2023-05-06T00:37:09.965Z,10.33
2023-05-06T00:42:12.745Z,10.56
2023-05-06T00:47:18.129Z,10.41
2023-05-06T00:52:21.193Z,10.47
2023-05-06T00:57:24.673Z,10.67
2023-05-06T01:02:43.476Z,10.70
2023-05-06T01:07:56.739Z,10.79
2023-05-06T01:13:08.173Z,10.79
2023-05-06T01:18:18.031Z,10.74
2023-05-06T01:23:22.463Z,10.62
2023-05-06T01:28:26.683Z,10.63
2023-05-06T01:33:36.129Z,10.70
2023-05-06T01:38:46.879Z,10.64
2023-05-06T01:43:50.370Z,10.50
2023-05-06T01:48:56.205Z,10.44
2023-05-06T01:54:00.705Z,10.51
2023-05-06T01:59:03.846Z,10.56
2023-05-06T02:04:07.115Z,10.64
2023-05-06T02:09:11.855Z,10.70
2023-05-06T02:14:19.213Z,10.86
2023-05-06T02:19:22.738Z,10.94
2023-05-06T02:24:27.225Z,10.99
2023-05-06T02:29:29.957Z,10.98
2023-05-06T02:34:33.580Z,10.93
2023-05-06T02:39:37.665Z,10.94
2023-05-06T02:44:40.697Z,10.90
2023-05-06T02:49:43.509Z,10.94
2023-05-06T02:54:47.627Z,10.81
2023-05-06T02:59:50.363Z,10.48
2023-05-06T03:04:53.109Z,10.40
2023-05-06T03:09:57.433Z,10.37
2023-05-06T03:15:00.389Z,10.36
2023-05-06T03:20:03.862Z,10.41
2023-05-06T03:25:10.108Z,10.44
2023-05-06T03:30:15.703Z,10.34
2023-05-06T03:35:19.940Z,10.32
2023-05-06T03:40:28.864Z,10.23
2023-05-06T03:45:32.911Z,10.16
2023-05-06T03:50:38.612Z,10.10
2023-05-06T03:55:42.921Z,10.10
2023-05-06T04:00:47.336Z,10.15
2023-05-06T04:05:51.187Z,10.31
2023-05-06T04:11:04.493Z,10.46
2023-05-06T04:16:09.681Z,10.53
2023-05-06T04:21:16.725Z,10.50
2023-05-06T04:26:25.831Z,10.49
2023-05-06T04:36:37.495Z,10.70
2023-05-06T04:41:52.435Z,10.50
2023-05-06T04:47:02.420Z,10.20
2023-05-06T04:52:06.080Z,10.04
2023-05-06T04:57:11.654Z,10.21
2023-05-06T05:02:17.324Z,10.51
2023-05-06T05:07:20.378Z,10.40
2023-05-06T05:12:25.360Z,10.78
2023-05-06T05:17:29.363Z,10.81
2023-05-06T05:22:33.420Z,11.03
2023-05-06T05:27:38.372Z,10.55
2023-05-06T05:32:41.522Z,10.97
2023-05-06T05:37:44.498Z,11.04
2023-05-06T05:42:48.682Z,10.64
2023-05-06T05:47:59.114Z,11.16
2023-05-06T05:53:02.426Z,11.57
2023-05-06T05:58:08.269Z,11.46
2023-05-06T06:03:11.660Z,11.45
2023-05-06T06:08:14.869Z,11.64
2023-05-06T06:13:19.375Z,11.90
2023-05-06T06:18:22.279Z,12.09
2023-05-06T06:23:25.323Z,12.02
2023-05-06T06:28:29.748Z,11.98
2023-05-06T06:33:32.604Z,11.61
2023-05-06T06:38:35.744Z,11.67
2023-05-06T06:43:39.870Z,11.97
2023-05-06T06:48:59.502Z,12.47
2023-05-06T06:54:02.261Z,12.50
2023-05-06T06:59:06.439Z,12.34
2023-05-06T07:04:09.294Z,12.56
2023-05-06T07:09:13.285Z,13.02
2023-05-06T07:14:17.480Z,12.89
2023-05-06T07:19:20.315Z,11.92
2023-05-06T07:24:23.202Z,12.48
2023-05-06T07:29:27.364Z,12.82
2023-05-06T07:34:30.290Z,13.04
2023-05-06T07:39:33.085Z,13.60
2023-05-06T07:44:37.309Z,13.84
2023-05-06T07:49:40.153Z,13.58
2023-05-06T07:54:42.930Z,13.83
2023-05-06T07:59:48.558Z,14.02
2023-05-06T08:04:51.937Z,14.04
2023-05-06T08:09:54.942Z,14.13
2023-05-06T08:14:59.148Z,14.17
2023-05-06T08:20:02.002Z,14.40
2023-05-06T08:25:05.492Z,14.04
2023-05-06T08:30:11.191Z,14.81
2023-05-06T08:35:14.097Z,15.35
2023-05-06T08:40:20.536Z,15.54
2023-05-06T08:45:25.515Z,16.25
2023-05-06T08:50:29.961Z,16.23
2023-05-06T08:55:35.108Z,16.87
2023-05-06T09:00:40.117Z,17.26
2023-05-06T09:05:42.957Z,17.60
2023-05-06T09:10:46.444Z,18.19
2023-05-06T09:15:50.949Z,18.64
2023-05-06T09:20:53.754Z,19.01
2023-05-06T09:25:58.256Z,18.67
2023-05-06T09:31:02.522Z,19.07
2023-05-06T09:36:06.858Z,19.57
2023-05-06T09:41:11.169Z,18.97
2023-05-06T09:46:15.751Z,18.49
2023-05-06T09:51:18.805Z,19.04
2023-05-06T09:56:22.591Z,18.72
2023-05-06T10:01:36.252Z,18.99
2023-05-06T10:06:41.733Z,20.28
2023-05-06T10:11:46.544Z,20.96
2023-05-06T10:16:51.386Z,21.43
2023-05-06T10:21:58.705Z,20.03
2023-05-06T10:27:06.518Z,20.15
2023-05-06T10:32:12.455Z,21.02
2023-05-06T10:37:16.085Z,20.39
2023-05-06T10:42:19.002Z,21.20
2023-05-06T10:47:23.365Z,21.61
2023-05-06T10:52:26.258Z,21.66
2023-05-06T10:57:41.944Z,22.49
2023-05-06T11:02:47.565Z,23.17
2023-05-06T11:07:51.589Z,23.59
2023-05-06T11:12:55.808Z,22.36
2023-05-06T11:18:42.890Z,23.71
2023-05-06T11:24:07.953Z,24.30
2023-05-06T11:29:11.300Z,23.89
2023-05-06T11:34:22.951Z,24.92
2023-05-06T11:39:30.218Z,25.63
2023-05-06T11:44:35.058Z,25.67
2023-05-06T11:49:41.861Z,26.01
2023-05-06T11:54:44.685Z,26.17
2023-05-06T11:59:47.601Z,25.49
2023-05-06T12:04:52.632Z,25.81
2023-05-06T12:09:55.802Z,25.25
2023-05-06T12:14:59.125Z,25.72
2023-05-06T12:20:04.044Z,26.16
2023-05-06T12:25:17.211Z,26.14
2023-05-06T12:30:30.377Z,26.47
2023-05-06T12:35:34.836Z,27.09
2023-05-06T12:40:38.340Z,27.18
2023-05-06T12:45:41.468Z,24.97
2023-05-06T12:50:46.369Z,23.47
2023-05-06T12:55:49.150Z,23.39
2023-05-06T13:00:52.086Z,24.65
2023-05-06T13:05:56.304Z,25.39
2023-05-06T13:11:01.575Z,26.45
2023-05-06T13:16:04.623Z,26.85
2023-05-06T13:21:09.365Z,26.60
2023-05-06T13:26:12.134Z,25.13
2023-05-06T13:31:14.927Z,26.38
2023-05-06T13:36:19.307Z,26.27
2023-05-06T13:41:24.277Z,26.28
2023-05-06T13:46:27.791Z,24.94
2023-05-06T13:51:33.493Z,25.57
2023-05-06T13:56:36.327Z,24.40
2023-05-06T14:01:40.223Z,23.19
2023-05-06T14:06:44.383Z,23.55
2023-05-06T14:11:47.176Z,24.04
2023-05-06T14:16:51.690Z,23.80
2023-05-06T14:21:55.830Z,24.31
2023-05-06T14:26:58.661Z,24.52
2023-05-06T14:32:01.618Z,24.86
2023-05-06T14:37:05.920Z,24.46
2023-05-06T14:42:08.706Z,24.10
2023-05-06T14:47:11.521Z,23.25
2023-05-06T14:52:17.141Z,23.21
2023-05-06T14:57:19.931Z,23.41
2023-05-06T15:02:22.730Z,23.85
2023-05-06T15:07:26.977Z,24.14
2023-05-06T15:12:29.847Z,24.53
2023-05-06T15:17:32.771Z,24.66
2023-05-06T15:22:39.255Z,25.37
2023-05-06T15:27:42.542Z,25.09
2023-05-06T15:32:45.356Z,24.75
2023-05-06T15:37:49.645Z,24.32
2023-05-06T15:42:52.622Z,24.74
2023-05-06T15:47:56.228Z,24.44
2023-05-06T15:53:01.144Z,24.39
2023-05-06T15:58:04.012Z,24.30
2023-05-06T16:03:09.889Z,24.29
2023-05-06T16:08:15.993Z,24.05
2023-05-06T16:13:20.070Z,22.88
2023-05-06T16:18:23.306Z,22.84
2023-05-06T16:23:27.431Z,22.87
2023-05-06T16:28:30.263Z,22.76
2023-05-06T16:33:33.072Z,22.90
2023-05-06T16:38:37.696Z,22.61
2023-05-06T16:43:40.985Z,22.82
2023-05-06T16:48:43.950Z,23.60
2023-05-06T16:53:48.228Z,24.07
2023-05-06T16:58:51.078Z,24.25
2023-05-06T17:03:53.834Z,26.08
2023-05-06T17:08:58.668Z,26.91
2023-05-06T17:14:01.428Z,26.20
2023-05-06T17:19:04.229Z,24.72
2023-05-06T17:24:08.644Z,23.43
2023-05-06T17:29:11.473Z,22.27
2023-05-06T17:34:14.378Z,21.15
2023-05-06T17:39:18.537Z,20.63
2023-05-06T17:44:21.530Z,20.22
2023-05-06T17:49:24.369Z,19.64
2023-05-06T17:54:32.343Z,19.28
2023-05-06T17:59:35.215Z,19.01
2023-05-06T18:04:38.019Z,18.75
2023-05-06T18:09:42.550Z,18.60
2023-05-06T18:14:45.474Z,18.41
2023-05-06T18:19:48.232Z,18.26
2023-05-06T18:24:55.170Z,18.21
2023-05-06T18:29:59.197Z,18.00
2023-05-06T18:35:02.117Z,17.97
2023-05-06T18:40:09.198Z,17.86
2023-05-06T18:45:13.160Z,17.73
2023-05-06T18:50:16.174Z,17.62
2023-05-06T18:55:20.620Z,17.53
2023-05-06T19:00:24.298Z,17.43
2023-05-06T19:05:27.728Z,17.31
2023-05-06T19:10:32.069Z,17.28
2023-05-06T19:15:35.658Z,17.15
2023-05-06T19:20:38.896Z,17.15
2023-05-06T19:25:43.091Z,16.96
2023-05-06T19:30:45.934Z,16.92
2023-05-06T19:35:48.821Z,16.87
2023-05-06T19:40:53.055Z,16.85
2023-05-06T19:45:55.995Z,16.73
2023-05-06T19:50:58.980Z,16.59
2023-05-06T19:56:10.786Z,16.52
2023-05-06T20:01:13.744Z,16.58
2023-05-06T20:06:17.147Z,16.51
2023-05-06T20:11:21.398Z,16.52
2023-05-06T20:16:24.527Z,16.40
2023-05-06T20:21:27.432Z,16.26
2023-05-06T20:26:31.715Z,16.20
2023-05-06T20:31:34.702Z,16.21
2023-05-06T20:36:37.721Z,16.15
2023-05-06T20:41:41.952Z,16.18
2023-05-06T20:46:45.198Z,16.13
2023-05-06T20:51:48.005Z,16.22
2023-05-06T20:56:52.202Z,16.30
2023-05-06T21:01:55.039Z,15.93
2023-05-06T21:06:58.263Z,15.74
2023-05-06T21:12:02.632Z,15.62
2023-05-06T21:17:05.673Z,15.55
2023-05-06T21:22:10.895Z,15.46
2023-05-06T21:27:16.706Z,15.40
2023-05-06T21:32:19.905Z,15.38
2023-05-06T21:37:22.920Z,15.27
2023-05-06T21:42:27.756Z,15.18
2023-05-06T21:47:30.922Z,14.96
2023-05-06T21:52:34.197Z,14.81
2023-05-06T21:57:38.897Z,14.75
2023-05-06T22:02:42.173Z,14.53
2023-05-06T22:07:45.346Z,14.51
2023-05-06T22:12:49.735Z,14.46
2023-05-06T22:17:53.038Z,14.49
2023-05-06T22:22:55.868Z,14.44
2023-05-06T22:27:59.963Z,14.28
2023-05-06T22:33:03.135Z,14.34
2023-05-06T22:38:05.890Z,14.43
2023-05-06T22:43:10.010Z,14.49
2023-05-06T22:48:12.856Z,14.54
2023-05-06T22:53:15.854Z,14.47
2023-05-06T22:58:20.013Z,14.40
2023-05-06T23:03:23.363Z,14.36
2023-05-06T23:08:26.177Z,14.31
2023-05-06T23:13:31.252Z,14.29
2023-05-06T23:18:33.995Z,14.24
2023-05-06T23:23:36.796Z,14.24
2023-05-06T23:28:40.887Z,14.26
2023-05-06T23:33:43.590Z,14.23
2023-05-06T23:38:46.388Z,14.22
2023-05-06T23:43:50.523Z,14.21
2023-05-06T23:48:53.304Z,14.23
2023-05-06T23:53:56.322Z,14.21
2023-05-06T23:59:00.453Z,14.16
